Česky Dansk Deutsch English Español Suomi Français Magyar Italiano Nederlands norsk Polski Português svenska Türkçe

 

Weather

Shonai (Japan)

08:00, 1 August 2016 (GMT)

NWNNE
WE
SWSSE
Home            
Shonai Yamagata Airport Akita Airport Niigata Airport Kasuminome Ab Sendai Airport Matsushima Ab Hanamaki Airport Sado Airport Odate-Noshiro Airport Fukushima Airport Aomori Airport Hachinohe Ab Misawa Ab Utsunomiya Ab Ominato Ab Hyakuri Ab Kasumigaura Ab Toyama Airport Iruma Ab Shimofusa Ab Matsumoto Airport Hakodate Airport

To put a weather button on your web site or blog, copy the code below and paste it into your page . The first box contains HTML code, the second UBB code.


Add to Google

Details

Wind speed:3 bf, 8 kn, 4.1 m/s, 9.2 miles/h, 14.8 km/h
Wind direction:WNW, 290° - NNE, 030°
Visibility:Greater than 10000 m, 10 km, 32800 ft, 6.2 miles
Clouds:A few clouds at 2500 ft, 762 m
Temperature:28°C, 82°F
Feels like:30°C, 86°F
Dew-point:22°C, 72°F
Atmospheric pressure:1007 hPa, 755.3 mmHg, 29.74 inHg, 0.994 atm
Relative humidity:69.9 %
METAR:RJSY 010800Z 34008KT 290V030 9999 FEW025 BKN 28/22 Q1007

Shortcuts

An up-to-date overview of weather conditions all over the world. Add locations with the plus (+) sign. These shortcuts can be added to Google.

Lid van de Technetium groep

website free tracking
StatCounter NetStat W3C Validator

02-10-2022 10:09:54
astro.technetium.be money.technetium.be phote.technetium.be tafeltennistafel.technetium.be www.ligfiets.net